sensor_id;sensor_type;location;lat;lon;timestamp;P1;durP1;ratioP1;P2;durP2;ratioP2
54935;SDS011;40838;50.676;7.838;2022-11-20T00:00:38;24.95;;;12.13;;
54935;SDS011;40838;50.676;7.838;2022-11-20T00:03:06;20.38;;;10.13;;
54935;SDS011;40838;50.676;7.838;2022-11-20T00:05:33;22.30;;;11.25;;
54935;SDS011;40838;50.676;7.838;2022-11-20T00:08:00;18.58;;;10.88;;
54935;SDS011;40838;50.676;7.838;2022-11-20T00:10:27;21.45;;;11.20;;
54935;SDS011;40838;50.676;7.838;2022-11-20T00:12:54;21.60;;;10.90;;
54935;SDS011;40838;50.676;7.838;2022-11-20T00:15:20;19.92;;;10.35;;
54935;SDS011;40838;50.676;7.838;2022-11-20T00:17:47;21.48;;;10.93;;
54935;SDS011;40838;50.676;7.838;2022-11-20T00:20:15;22.33;;;12.18;;
54935;SDS011;40838;50.676;7.838;2022-11-20T00:22:42;25.33;;;12.57;;
54935;SDS011;40838;50.676;7.838;2022-11-20T00:25:09;23.00;;;11.63;;
54935;SDS011;40838;50.676;7.838;2022-11-20T00:27:36;20.02;;;10.35;;
54935;SDS011;40838;50.676;7.838;2022-11-20T00:30:04;22.92;;;11.63;;
54935;SDS011;40838;50.676;7.838;2022-11-20T00:32:31;20.98;;;11.35;;
54935;SDS011;40838;50.676;7.838;2022-11-20T00:34:58;26.42;;;13.40;;
54935;SDS011;40838;50.676;7.838;2022-11-20T00:37:26;23.13;;;11.82;;
54935;SDS011;40838;50.676;7.838;2022-11-20T00:39:53;23.58;;;12.98;;
54935;SDS011;40838;50.676;7.838;2022-11-20T00:42:20;21.30;;;11.68;;
54935;SDS011;40838;50.676;7.838;2022-11-20T00:44:49;22.90;;;12.35;;
54935;SDS011;40838;50.676;7.838;2022-11-20T00:47:15;24.85;;;12.20;;
54935;SDS011;40838;50.676;7.838;2022-11-20T00:49:42;20.55;;;11.88;;
54935;SDS011;40838;50.676;7.838;2022-11-20T00:52:09;24.98;;;12.50;;
54935;SDS011;40838;50.676;7.838;2022-11-20T00:54:37;29.33;;;12.48;;
54935;SDS011;40838;50.676;7.838;2022-11-20T00:57:04;24.85;;;12.40;;
54935;SDS011;40838;50.676;7.838;2022-11-20T00:59:31;27.13;;;12.25;;
54935;SDS011;40838;50.676;7.838;2022-11-20T01:01:58;27.23;;;12.45;;
54935;SDS011;40838;50.676;7.838;2022-11-20T01:04:25;28.20;;;12.63;;
54935;SDS011;40838;50.676;7.838;2022-11-20T01:06:52;25.50;;;12.57;;
54935;SDS011;40838;50.676;7.838;2022-11-20T01:09:19;25.58;;;12.10;;
54935;SDS011;40838;50.676;7.838;2022-11-20T01:11:47;23.05;;;12.25;;
54935;SDS011;40838;50.676;7.838;2022-11-20T01:14:15;27.80;;;12.80;;
54935;SDS011;40838;50.676;7.838;2022-11-20T01:16:45;22.85;;;12.13;;
54935;SDS011;40838;50.676;7.838;2022-11-20T01:19:13;28.17;;;11.90;;
54935;SDS011;40838;50.676;7.838;2022-11-20T01:21:42;28.17;;;13.18;;
54935;SDS011;40838;50.676;7.838;2022-11-20T01:24:11;28.40;;;13.45;;
54935;SDS011;40838;50.676;7.838;2022-11-20T01:26:39;26.73;;;13.10;;
54935;SDS011;40838;50.676;7.838;2022-11-20T01:29:10;25.27;;;12.50;;
54935;SDS011;40838;50.676;7.838;2022-11-20T01:31:40;25.35;;;12.32;;
54935;SDS011;40838;50.676;7.838;2022-11-20T01:34:09;27.38;;;13.95;;
54935;SDS011;40838;50.676;7.838;2022-11-20T01:36:37;24.35;;;12.65;;
54935;SDS011;40838;50.676;7.838;2022-11-20T01:39:06;24.90;;;12.65;;
54935;SDS011;40838;50.676;7.838;2022-11-20T01:41:36;25.70;;;12.35;;
54935;SDS011;40838;50.676;7.838;2022-11-20T01:44:22;27.02;;;13.93;;
54935;SDS011;40838;50.676;7.838;2022-11-20T01:47:09;27.00;;;12.73;;
54935;SDS011;40838;50.676;7.838;2022-11-20T01:49:40;27.23;;;13.63;;
54935;SDS011;40838;50.676;7.838;2022-11-20T01:52:12;27.38;;;13.73;;
54935;SDS011;40838;50.676;7.838;2022-11-20T01:54:44;27.60;;;13.85;;
54935;SDS011;40838;50.676;7.838;2022-11-20T01:57:14;23.83;;;12.10;;
54935;SDS011;40838;50.676;7.838;2022-11-20T01:59:47;26.27;;;12.75;;
54935;SDS011;40838;50.676;7.838;2022-11-20T02:02:19;26.88;;;14.18;;
54935;SDS011;40838;50.676;7.838;2022-11-20T02:04:46;22.33;;;11.75;;
54935;SDS011;40838;50.676;7.838;2022-11-20T02:07:15;28.73;;;13.82;;
54935;SDS011;40838;50.676;7.838;2022-11-20T02:09:42;27.23;;;13.02;;
54935;SDS011;40838;50.676;7.838;2022-11-20T02:12:09;28.30;;;12.60;;
54935;SDS011;40838;50.676;7.838;2022-11-20T02:14:58;26.73;;;13.55;;
54935;SDS011;40838;50.676;7.838;2022-11-20T02:17:24;26.98;;;13.23;;
54935;SDS011;40838;50.676;7.838;2022-11-20T02:19:51;29.73;;;13.93;;
54935;SDS011;40838;50.676;7.838;2022-11-20T02:22:19;29.13;;;14.52;;
54935;SDS011;40838;50.676;7.838;2022-11-20T02:24:54;27.70;;;14.27;;
54935;SDS011;40838;50.676;7.838;2022-11-20T02:27:23;30.30;;;14.63;;
54935;SDS011;40838;50.676;7.838;2022-11-20T02:29:50;25.65;;;13.18;;
54935;SDS011;40838;50.676;7.838;2022-11-20T02:32:19;30.00;;;15.20;;
54935;SDS011;40838;50.676;7.838;2022-11-20T02:34:47;27.75;;;13.77;;
54935;SDS011;40838;50.676;7.838;2022-11-20T02:37:14;29.90;;;13.60;;
54935;SDS011;40838;50.676;7.838;2022-11-20T02:39:43;26.40;;;13.80;;
54935;SDS011;40838;50.676;7.838;2022-11-20T02:42:12;29.45;;;13.77;;
54935;SDS011;40838;50.676;7.838;2022-11-20T02:44:39;28.25;;;13.63;;
54935;SDS011;40838;50.676;7.838;2022-11-20T02:47:06;29.80;;;13.93;;
54935;SDS011;40838;50.676;7.838;2022-11-20T02:49:33;28.77;;;14.60;;
54935;SDS011;40838;50.676;7.838;2022-11-20T02:51:59;28.92;;;14.65;;
54935;SDS011;40838;50.676;7.838;2022-11-20T02:54:26;27.63;;;14.65;;
54935;SDS011;40838;50.676;7.838;2022-11-20T02:56:53;28.70;;;15.20;;
54935;SDS011;40838;50.676;7.838;2022-11-20T02:59:21;31.52;;;14.77;;
54935;SDS011;40838;50.676;7.838;2022-11-20T03:01:48;31.25;;;15.02;;
54935;SDS011;40838;50.676;7.838;2022-11-20T03:04:15;26.98;;;13.95;;
54935;SDS011;40838;50.676;7.838;2022-11-20T03:06:42;28.00;;;13.65;;
54935;SDS011;40838;50.676;7.838;2022-11-20T03:09:09;28.98;;;14.38;;
54935;SDS011;40838;50.676;7.838;2022-11-20T03:11:36;33.88;;;15.38;;
54935;SDS011;40838;50.676;7.838;2022-11-20T03:14:02;29.15;;;14.20;;
54935;SDS011;40838;50.676;7.838;2022-11-20T03:16:33;28.80;;;14.15;;
54935;SDS011;40838;50.676;7.838;2022-11-20T03:19:00;30.00;;;14.30;;
54935;SDS011;40838;50.676;7.838;2022-11-20T03:21:27;29.48;;;14.63;;
54935;SDS011;40838;50.676;7.838;2022-11-20T03:23:54;30.05;;;13.60;;
54935;SDS011;40838;50.676;7.838;2022-11-20T03:26:21;33.67;;;15.10;;
54935;SDS011;40838;50.676;7.838;2022-11-20T03:28:50;27.05;;;14.93;;
54935;SDS011;40838;50.676;7.838;2022-11-20T03:31:18;33.00;;;15.55;;
54935;SDS011;40838;50.676;7.838;2022-11-20T03:33:48;30.52;;;14.80;;
54935;SDS011;40838;50.676;7.838;2022-11-20T03:36:15;28.65;;;15.30;;
54935;SDS011;40838;50.676;7.838;2022-11-20T03:38:44;31.25;;;14.98;;
54935;SDS011;40838;50.676;7.838;2022-11-20T03:41:14;31.13;;;14.88;;
54935;SDS011;40838;50.676;7.838;2022-11-20T03:43:41;27.08;;;13.82;;
54935;SDS011;40838;50.676;7.838;2022-11-20T03:46:08;27.73;;;13.77;;
54935;SDS011;40838;50.676;7.838;2022-11-20T03:48:35;27.00;;;13.90;;
54935;SDS011;40838;50.676;7.838;2022-11-20T03:51:10;25.48;;;13.23;;
54935;SDS011;40838;50.676;7.838;2022-11-20T03:53:39;26.75;;;13.57;;
54935;SDS011;40838;50.676;7.838;2022-11-20T03:56:06;29.55;;;14.55;;
54935;SDS011;40838;50.676;7.838;2022-11-20T03:58:34;29.92;;;14.35;;
54935;SDS011;40838;50.676;7.838;2022-11-20T04:01:05;27.80;;;14.60;;
54935;SDS011;40838;50.676;7.838;2022-11-20T04:03:33;33.38;;;15.73;;
54935;SDS011;40838;50.676;7.838;2022-11-20T04:06:03;30.70;;;15.70;;
54935;SDS011;40838;50.676;7.838;2022-11-20T04:08:33;30.58;;;14.38;;
54935;SDS011;40838;50.676;7.838;2022-11-20T04:11:10;32.58;;;15.15;;
54935;SDS011;40838;50.676;7.838;2022-11-20T04:13:38;38.28;;;16.10;;
54935;SDS011;40838;50.676;7.838;2022-11-20T04:16:06;31.02;;;15.27;;
54935;SDS011;40838;50.676;7.838;2022-11-20T04:18:34;32.15;;;16.02;;
54935;SDS011;40838;50.676;7.838;2022-11-20T04:21:01;33.63;;;15.30;;
54935;SDS011;40838;50.676;7.838;2022-11-20T04:23:28;31.67;;;14.32;;
54935;SDS011;40838;50.676;7.838;2022-11-20T04:26:01;31.80;;;16.00;;
54935;SDS011;40838;50.676;7.838;2022-11-20T04:28:28;34.50;;;15.90;;
54935;SDS011;40838;50.676;7.838;2022-11-20T04:31:01;31.83;;;15.52;;
54935;SDS011;40838;50.676;7.838;2022-11-20T04:33:29;30.15;;;15.57;;
54935;SDS011;40838;50.676;7.838;2022-11-20T04:36:01;31.08;;;15.77;;
54935;SDS011;40838;50.676;7.838;2022-11-20T04:38:29;30.63;;;15.23;;
54935;SDS011;40838;50.676;7.838;2022-11-20T04:40:56;29.20;;;15.27;;
54935;SDS011;40838;50.676;7.838;2022-11-20T04:43:26;34.13;;;16.38;;
54935;SDS011;40838;50.676;7.838;2022-11-20T04:45:53;36.40;;;16.60;;
54935;SDS011;40838;50.676;7.838;2022-11-20T04:48:20;33.45;;;16.30;;
54935;SDS011;40838;50.676;7.838;2022-11-20T04:50:47;34.15;;;15.50;;
54935;SDS011;40838;50.676;7.838;2022-11-20T04:53:14;33.47;;;15.57;;
54935;SDS011;40838;50.676;7.838;2022-11-20T04:55:41;33.85;;;15.77;;
54935;SDS011;40838;50.676;7.838;2022-11-20T04:58:08;31.38;;;13.85;;
54935;SDS011;40838;50.676;7.838;2022-11-20T05:00:36;36.50;;;15.68;;
54935;SDS011;40838;50.676;7.838;2022-11-20T05:03:03;35.88;;;16.00;;
54935;SDS011;40838;50.676;7.838;2022-11-20T05:05:30;34.67;;;16.35;;
54935;SDS011;40838;50.676;7.838;2022-11-20T05:07:57;35.78;;;16.73;;
54935;SDS011;40838;50.676;7.838;2022-11-20T05:10:24;35.72;;;15.95;;
54935;SDS011;40838;50.676;7.838;2022-11-20T05:12:52;41.17;;;15.95;;
54935;SDS011;40838;50.676;7.838;2022-11-20T05:15:19;39.40;;;17.98;;
54935;SDS011;40838;50.676;7.838;2022-11-20T05:17:50;44.28;;;17.63;;
54935;SDS011;40838;50.676;7.838;2022-11-20T05:20:18;42.70;;;18.50;;
54935;SDS011;40838;50.676;7.838;2022-11-20T05:22:45;46.00;;;19.92;;
54935;SDS011;40838;50.676;7.838;2022-11-20T05:25:12;43.42;;;18.90;;
54935;SDS011;40838;50.676;7.838;2022-11-20T05:27:39;46.95;;;19.23;;
54935;SDS011;40838;50.676;7.838;2022-11-20T05:30:07;46.53;;;19.98;;
54935;SDS011;40838;50.676;7.838;2022-11-20T05:32:34;47.35;;;18.40;;
54935;SDS011;40838;50.676;7.838;2022-11-20T05:35:03;50.88;;;20.02;;
54935;SDS011;40838;50.676;7.838;2022-11-20T05:37:30;50.72;;;19.80;;
54935;SDS011;40838;50.676;7.838;2022-11-20T05:39:57;48.05;;;19.25;;
54935;SDS011;40838;50.676;7.838;2022-11-20T05:42:24;53.70;;;22.42;;
54935;SDS011;40838;50.676;7.838;2022-11-20T05:44:57;53.55;;;21.75;;
54935;SDS011;40838;50.676;7.838;2022-11-20T05:47:24;54.25;;;21.45;;
54935;SDS011;40838;50.676;7.838;2022-11-20T05:49:51;59.50;;;23.40;;
54935;SDS011;40838;50.676;7.838;2022-11-20T05:52:19;56.35;;;21.05;;
54935;SDS011;40838;50.676;7.838;2022-11-20T05:54:46;57.30;;;21.75;;
54935;SDS011;40838;50.676;7.838;2022-11-20T05:57:13;64.45;;;23.77;;
54935;SDS011;40838;50.676;7.838;2022-11-20T05:59:40;61.05;;;22.85;;
54935;SDS011;40838;50.676;7.838;2022-11-20T06:02:07;61.03;;;22.50;;
54935;SDS011;40838;50.676;7.838;2022-11-20T06:04:34;65.63;;;21.95;;
54935;SDS011;40838;50.676;7.838;2022-11-20T06:07:01;65.95;;;22.55;;
54935;SDS011;40838;50.676;7.838;2022-11-20T06:09:29;66.97;;;23.33;;
54935;SDS011;40838;50.676;7.838;2022-11-20T06:11:56;61.45;;;21.90;;
54935;SDS011;40838;50.676;7.838;2022-11-20T06:14:23;71.97;;;23.35;;
54935;SDS011;40838;50.676;7.838;2022-11-20T06:16:50;63.38;;;23.25;;
54935;SDS011;40838;50.676;7.838;2022-11-20T06:19:16;60.00;;;22.17;;
54935;SDS011;40838;50.676;7.838;2022-11-20T06:21:43;63.47;;;22.13;;
54935;SDS011;40838;50.676;7.838;2022-11-20T06:24:10;69.47;;;24.30;;
54935;SDS011;40838;50.676;7.838;2022-11-20T06:26:39;65.60;;;22.27;;
54935;SDS011;40838;50.676;7.838;2022-11-20T06:29:06;63.83;;;21.40;;
54935;SDS011;40838;50.676;7.838;2022-11-20T06:31:33;65.40;;;21.92;;
54935;SDS011;40838;50.676;7.838;2022-11-20T06:34:02;71.93;;;22.65;;
54935;SDS011;40838;50.676;7.838;2022-11-20T06:36:30;61.47;;;21.20;;
54935;SDS011;40838;50.676;7.838;2022-11-20T06:38:57;62.25;;;22.98;;
54935;SDS011;40838;50.676;7.838;2022-11-20T06:41:23;73.03;;;25.63;;
54935;SDS011;40838;50.676;7.838;2022-11-20T06:43:52;74.63;;;24.73;;
54935;SDS011;40838;50.676;7.838;2022-11-20T06:46:19;81.28;;;26.30;;
54935;SDS011;40838;50.676;7.838;2022-11-20T06:48:46;77.07;;;25.35;;
54935;SDS011;40838;50.676;7.838;2022-11-20T06:51:14;78.65;;;25.10;;
54935;SDS011;40838;50.676;7.838;2022-11-20T06:53:41;78.82;;;25.40;;
54935;SDS011;40838;50.676;7.838;2022-11-20T06:56:08;79.85;;;27.05;;
54935;SDS011;40838;50.676;7.838;2022-11-20T06:58:35;76.20;;;25.10;;
54935;SDS011;40838;50.676;7.838;2022-11-20T07:01:04;82.95;;;26.40;;
54935;SDS011;40838;50.676;7.838;2022-11-20T07:03:33;80.38;;;25.48;;
54935;SDS011;40838;50.676;7.838;2022-11-20T07:06:00;82.13;;;25.77;;
54935;SDS011;40838;50.676;7.838;2022-11-20T07:08:28;84.50;;;26.52;;
54935;SDS011;40838;50.676;7.838;2022-11-20T07:10:58;80.00;;;26.77;;
54935;SDS011;40838;50.676;7.838;2022-11-20T07:13:25;77.38;;;24.85;;
54935;SDS011;40838;50.676;7.838;2022-11-20T07:15:52;76.63;;;24.83;;
54935;SDS011;40838;50.676;7.838;2022-11-20T07:18:20;66.47;;;25.30;;
54935;SDS011;40838;50.676;7.838;2022-11-20T07:20:47;72.32;;;23.02;;
54935;SDS011;40838;50.676;7.838;2022-11-20T07:23:14;66.18;;;23.55;;
54935;SDS011;40838;50.676;7.838;2022-11-20T07:25:41;68.85;;;23.95;;
54935;SDS011;40838;50.676;7.838;2022-11-20T07:28:08;69.63;;;22.23;;
54935;SDS011;40838;50.676;7.838;2022-11-20T07:30:35;76.15;;;23.38;;
54935;SDS011;40838;50.676;7.838;2022-11-20T07:33:02;67.22;;;22.30;;
54935;SDS011;40838;50.676;7.838;2022-11-20T07:35:31;69.60;;;22.75;;
54935;SDS011;40838;50.676;7.838;2022-11-20T07:37:58;76.45;;;23.98;;
54935;SDS011;40838;50.676;7.838;2022-11-20T07:40:24;67.25;;;22.85;;
54935;SDS011;40838;50.676;7.838;2022-11-20T07:42:52;70.10;;;22.25;;
54935;SDS011;40838;50.676;7.838;2022-11-20T07:45:20;76.55;;;23.77;;
54935;SDS011;40838;50.676;7.838;2022-11-20T07:47:48;70.60;;;22.98;;
54935;SDS011;40838;50.676;7.838;2022-11-20T07:50:16;73.45;;;23.23;;
54935;SDS011;40838;50.676;7.838;2022-11-20T07:52:44;77.95;;;25.10;;
54935;SDS011;40838;50.676;7.838;2022-11-20T07:55:11;73.38;;;23.20;;
54935;SDS011;40838;50.676;7.838;2022-11-20T07:57:38;73.78;;;24.05;;
54935;SDS011;40838;50.676;7.838;2022-11-20T08:00:06;63.25;;;22.35;;
54935;SDS011;40838;50.676;7.838;2022-11-20T08:02:38;68.85;;;22.95;;
54935;SDS011;40838;50.676;7.838;2022-11-20T08:05:07;72.32;;;23.38;;
54935;SDS011;40838;50.676;7.838;2022-11-20T08:07:35;64.82;;;23.75;;
54935;SDS011;40838;50.676;7.838;2022-11-20T08:10:05;69.78;;;22.77;;
54935;SDS011;40838;50.676;7.838;2022-11-20T08:12:33;64.03;;;22.20;;
54935;SDS011;40838;50.676;7.838;2022-11-20T08:15:17;66.40;;;22.23;;
54935;SDS011;40838;50.676;7.838;2022-11-20T08:17:44;77.45;;;25.30;;
54935;SDS011;40838;50.676;7.838;2022-11-20T08:20:11;68.68;;;23.23;;
54935;SDS011;40838;50.676;7.838;2022-11-20T08:22:38;61.53;;;21.55;;
54935;SDS011;40838;50.676;7.838;2022-11-20T08:25:06;76.72;;;25.98;;
54935;SDS011;40838;50.676;7.838;2022-11-20T08:27:33;74.65;;;25.20;;
54935;SDS011;40838;50.676;7.838;2022-11-20T08:30:00;69.15;;;23.58;;
54935;SDS011;40838;50.676;7.838;2022-11-20T08:32:27;66.90;;;23.98;;
54935;SDS011;40838;50.676;7.838;2022-11-20T08:34:55;73.32;;;23.23;;
54935;SDS011;40838;50.676;7.838;2022-11-20T08:37:21;77.00;;;25.17;;
54935;SDS011;40838;50.676;7.838;2022-11-20T08:39:48;73.38;;;25.20;;
54935;SDS011;40838;50.676;7.838;2022-11-20T08:42:16;54.92;;;21.60;;
54935;SDS011;40838;50.676;7.838;2022-11-20T08:44:43;57.50;;;20.17;;
54935;SDS011;40838;50.676;7.838;2022-11-20T08:47:10;48.95;;;19.95;;
54935;SDS011;40838;50.676;7.838;2022-11-20T08:49:37;163.30;;;74.22;;
54935;SDS011;40838;50.676;7.838;2022-11-20T08:52:04;245.50;;;108.93;;
54935;SDS011;40838;50.676;7.838;2022-11-20T08:54:31;60.53;;;26.58;;
54935;SDS011;40838;50.676;7.838;2022-11-20T08:56:58;46.08;;;19.92;;
54935;SDS011;40838;50.676;7.838;2022-11-20T08:59:28;43.53;;;18.38;;
54935;SDS011;40838;50.676;7.838;2022-11-20T09:01:56;40.25;;;17.67;;
54935;SDS011;40838;50.676;7.838;2022-11-20T09:04:23;31.42;;;15.88;;
54935;SDS011;40838;50.676;7.838;2022-11-20T09:06:50;41.03;;;18.75;;
54935;SDS011;40838;50.676;7.838;2022-11-20T09:09:17;39.78;;;17.35;;
54935;SDS011;40838;50.676;7.838;2022-11-20T09:11:44;39.03;;;17.45;;
54935;SDS011;40838;50.676;7.838;2022-11-20T09:14:11;35.97;;;16.15;;
54935;SDS011;40838;50.676;7.838;2022-11-20T09:16:39;33.58;;;15.32;;
54935;SDS011;40838;50.676;7.838;2022-11-20T09:19:06;32.40;;;15.73;;
54935;SDS011;40838;50.676;7.838;2022-11-20T09:21:33;29.70;;;15.48;;
54935;SDS011;40838;50.676;7.838;2022-11-20T09:24:00;33.17;;;15.20;;
54935;SDS011;40838;50.676;7.838;2022-11-20T09:26:26;32.67;;;16.30;;
54935;SDS011;40838;50.676;7.838;2022-11-20T09:28:54;33.60;;;15.90;;
54935;SDS011;40838;50.676;7.838;2022-11-20T09:31:22;30.98;;;15.00;;
54935;SDS011;40838;50.676;7.838;2022-11-20T09:33:52;28.65;;;13.75;;
54935;SDS011;40838;50.676;7.838;2022-11-20T09:36:20;28.02;;;13.82;;
54935;SDS011;40838;50.676;7.838;2022-11-20T09:38:47;27.38;;;14.35;;
54935;SDS011;40838;50.676;7.838;2022-11-20T09:41:24;31.15;;;14.05;;
54935;SDS011;40838;50.676;7.838;2022-11-20T09:44:10;32.80;;;14.10;;
54935;SDS011;40838;50.676;7.838;2022-11-20T09:46:53;32.38;;;14.85;;
54935;SDS011;40838;50.676;7.838;2022-11-20T09:49:31;29.23;;;14.85;;
54935;SDS011;40838;50.676;7.838;2022-11-20T09:52:09;28.02;;;14.45;;
54935;SDS011;40838;50.676;7.838;2022-11-20T09:54:42;32.38;;;17.65;;
54935;SDS011;40838;50.676;7.838;2022-11-20T09:57:10;28.90;;;14.45;;
54935;SDS011;40838;50.676;7.838;2022-11-20T09:59:41;32.72;;;15.05;;
54935;SDS011;40838;50.676;7.838;2022-11-20T10:02:14;31.15;;;15.57;;
54935;SDS011;40838;50.676;7.838;2022-11-20T10:04:57;31.67;;;15.30;;
54935;SDS011;40838;50.676;7.838;2022-11-20T10:07:30;33.13;;;15.10;;
54935;SDS011;40838;50.676;7.838;2022-11-20T10:10:03;30.88;;;14.80;;
54935;SDS011;40838;50.676;7.838;2022-11-20T10:12:33;31.90;;;14.85;;
54935;SDS011;40838;50.676;7.838;2022-11-20T10:15:12;30.15;;;14.55;;
54935;SDS011;40838;50.676;7.838;2022-11-20T10:20:46;30.08;;;13.98;;
54935;SDS011;40838;50.676;7.838;2022-11-20T10:23:23;27.40;;;13.85;;
54935;SDS011;40838;50.676;7.838;2022-11-20T10:26:02;34.30;;;16.38;;
54935;SDS011;40838;50.676;7.838;2022-11-20T10:28:35;43.85;;;20.48;;
54935;SDS011;40838;50.676;7.838;2022-11-20T10:31:14;36.67;;;17.33;;
54935;SDS011;40838;50.676;7.838;2022-11-20T10:33:52;54.47;;;24.50;;
54935;SDS011;40838;50.676;7.838;2022-11-20T10:36:25;35.95;;;17.02;;
54935;SDS011;40838;50.676;7.838;2022-11-20T10:38:55;32.17;;;15.32;;
54935;SDS011;40838;50.676;7.838;2022-11-20T10:41:27;31.08;;;15.13;;
54935;SDS011;40838;50.676;7.838;2022-11-20T10:44:01;36.15;;;16.92;;
54935;SDS011;40838;50.676;7.838;2022-11-20T10:46:36;52.72;;;22.92;;
54935;SDS011;40838;50.676;7.838;2022-11-20T10:49:11;32.05;;;15.55;;
54935;SDS011;40838;50.676;7.838;2022-11-20T10:51:45;30.90;;;15.10;;
54935;SDS011;40838;50.676;7.838;2022-11-20T10:54:27;39.40;;;18.02;;
54935;SDS011;40838;50.676;7.838;2022-11-20T10:57:05;55.28;;;23.35;;
54935;SDS011;40838;50.676;7.838;2022-11-20T10:59:45;28.42;;;14.23;;
54935;SDS011;40838;50.676;7.838;2022-11-20T11:02:31;33.33;;;16.17;;
54935;SDS011;40838;50.676;7.838;2022-11-20T11:05:04;28.95;;;14.57;;
54935;SDS011;40838;50.676;7.838;2022-11-20T11:07:40;35.30;;;18.40;;
54935;SDS011;40838;50.676;7.838;2022-11-20T11:10:13;32.42;;;16.08;;
54935;SDS011;40838;50.676;7.838;2022-11-20T11:12:43;27.52;;;14.50;;
54935;SDS011;40838;50.676;7.838;2022-11-20T11:15:12;22.08;;;12.90;;
54935;SDS011;40838;50.676;7.838;2022-11-20T11:17:45;26.90;;;14.50;;
54935;SDS011;40838;50.676;7.838;2022-11-20T11:20:17;27.35;;;14.35;;
54935;SDS011;40838;50.676;7.838;2022-11-20T11:22:47;25.50;;;13.48;;
54935;SDS011;40838;50.676;7.838;2022-11-20T11:25:19;31.00;;;15.75;;
54935;SDS011;40838;50.676;7.838;2022-11-20T11:27:48;22.20;;;11.65;;
54935;SDS011;40838;50.676;7.838;2022-11-20T11:30:16;23.25;;;11.60;;
54935;SDS011;40838;50.676;7.838;2022-11-20T11:32:44;28.00;;;13.57;;
54935;SDS011;40838;50.676;7.838;2022-11-20T11:35:19;35.90;;;20.42;;
54935;SDS011;40838;50.676;7.838;2022-11-20T11:37:50;27.98;;;14.32;;
54935;SDS011;40838;50.676;7.838;2022-11-20T11:40:19;24.17;;;13.15;;
54935;SDS011;40838;50.676;7.838;2022-11-20T11:42:50;32.90;;;15.63;;
54935;SDS011;40838;50.676;7.838;2022-11-20T11:45:20;27.27;;;14.20;;
54935;SDS011;40838;50.676;7.838;2022-11-20T11:47:47;24.40;;;12.10;;
54935;SDS011;40838;50.676;7.838;2022-11-20T11:50:16;25.02;;;13.60;;
54935;SDS011;40838;50.676;7.838;2022-11-20T11:52:46;30.15;;;15.55;;
54935;SDS011;40838;50.676;7.838;2022-11-20T11:55:25;41.38;;;20.02;;
54935;SDS011;40838;50.676;7.838;2022-11-20T11:57:59;23.17;;;12.63;;
54935;SDS011;40838;50.676;7.838;2022-11-20T12:00:35;25.48;;;13.35;;
54935;SDS011;40838;50.676;7.838;2022-11-20T12:03:08;24.55;;;13.30;;
54935;SDS011;40838;50.676;7.838;2022-11-20T12:05:43;25.58;;;12.93;;
54935;SDS011;40838;50.676;7.838;2022-11-20T12:08:15;25.55;;;13.32;;
54935;SDS011;40838;50.676;7.838;2022-11-20T12:10:48;26.67;;;14.18;;
54935;SDS011;40838;50.676;7.838;2022-11-20T12:13:27;25.77;;;13.82;;
54935;SDS011;40838;50.676;7.838;2022-11-20T12:16:03;29.08;;;14.45;;
54935;SDS011;40838;50.676;7.838;2022-11-20T12:18:31;26.83;;;13.38;;
54935;SDS011;40838;50.676;7.838;2022-11-20T12:21:02;26.98;;;14.25;;
54935;SDS011;40838;50.676;7.838;2022-11-20T12:23:44;25.10;;;13.65;;
54935;SDS011;40838;50.676;7.838;2022-11-20T12:26:25;24.58;;;13.75;;
54935;SDS011;40838;50.676;7.838;2022-11-20T12:29:02;29.55;;;13.27;;
54935;SDS011;40838;50.676;7.838;2022-11-20T12:31:40;27.52;;;14.00;;
54935;SDS011;40838;50.676;7.838;2022-11-20T12:34:35;24.63;;;12.88;;
54935;SDS011;40838;50.676;7.838;2022-11-20T12:37:15;24.80;;;13.15;;
54935;SDS011;40838;50.676;7.838;2022-11-20T12:39:54;29.08;;;14.32;;
54935;SDS011;40838;50.676;7.838;2022-11-20T12:42:33;23.42;;;12.63;;
54935;SDS011;40838;50.676;7.838;2022-11-20T12:48:34;25.67;;;13.00;;
54935;SDS011;40838;50.676;7.838;2022-11-20T12:51:18;23.98;;;12.88;;
54935;SDS011;40838;50.676;7.838;2022-11-20T12:53:58;24.58;;;12.30;;
54935;SDS011;40838;50.676;7.838;2022-11-20T12:56:39;20.02;;;11.35;;
54935;SDS011;40838;50.676;7.838;2022-11-20T12:59:20;22.30;;;12.18;;
54935;SDS011;40838;50.676;7.838;2022-11-20T13:02:01;29.05;;;14.85;;
54935;SDS011;40838;50.676;7.838;2022-11-20T13:04:54;27.25;;;14.10;;
54935;SDS011;40838;50.676;7.838;2022-11-20T13:07:31;26.02;;;14.07;;
54935;SDS011;40838;50.676;7.838;2022-11-20T13:09:59;25.13;;;14.00;;
54935;SDS011;40838;50.676;7.838;2022-11-20T13:12:29;26.65;;;12.43;;
54935;SDS011;40838;50.676;7.838;2022-11-20T13:15:04;24.75;;;13.45;;
54935;SDS011;40838;50.676;7.838;2022-11-20T13:17:45;24.70;;;12.40;;
54935;SDS011;40838;50.676;7.838;2022-11-20T13:20:18;25.88;;;13.25;;
54935;SDS011;40838;50.676;7.838;2022-11-20T13:22:46;26.10;;;14.32;;
54935;SDS011;40838;50.676;7.838;2022-11-20T13:25:24;27.90;;;14.27;;
54935;SDS011;40838;50.676;7.838;2022-11-20T13:27:54;23.02;;;12.18;;
54935;SDS011;40838;50.676;7.838;2022-11-20T13:30:22;25.27;;;13.05;;
54935;SDS011;40838;50.676;7.838;2022-11-20T13:32:51;27.13;;;12.90;;
54935;SDS011;40838;50.676;7.838;2022-11-20T13:35:27;24.05;;;13.02;;
54935;SDS011;40838;50.676;7.838;2022-11-20T13:38:04;27.25;;;12.77;;
54935;SDS011;40838;50.676;7.838;2022-11-20T13:40:33;26.70;;;13.52;;
54935;SDS011;40838;50.676;7.838;2022-11-20T13:43:19;27.00;;;12.68;;
54935;SDS011;40838;50.676;7.838;2022-11-20T13:45:56;23.02;;;11.63;;
54935;SDS011;40838;50.676;7.838;2022-11-20T13:48:25;22.75;;;12.35;;
54935;SDS011;40838;50.676;7.838;2022-11-20T13:51:02;27.15;;;13.68;;
54935;SDS011;40838;50.676;7.838;2022-11-20T13:53:39;23.30;;;11.68;;
54935;SDS011;40838;50.676;7.838;2022-11-20T13:56:23;21.58;;;11.95;;
54935;SDS011;40838;50.676;7.838;2022-11-20T13:58:59;23.80;;;12.65;;
54935;SDS011;40838;50.676;7.838;2022-11-20T14:01:31;23.35;;;11.88;;
54935;SDS011;40838;50.676;7.838;2022-11-20T14:03:59;23.73;;;12.77;;
54935;SDS011;40838;50.676;7.838;2022-11-20T14:06:34;22.63;;;11.10;;
54935;SDS011;40838;50.676;7.838;2022-11-20T14:09:10;23.20;;;11.82;;
54935;SDS011;40838;50.676;7.838;2022-11-20T14:11:45;22.50;;;11.40;;
54935;SDS011;40838;50.676;7.838;2022-11-20T14:14:15;22.25;;;12.05;;
54935;SDS011;40838;50.676;7.838;2022-11-20T14:16:46;18.38;;;9.82;;
54935;SDS011;40838;50.676;7.838;2022-11-20T14:19:27;21.90;;;11.23;;
54935;SDS011;40838;50.676;7.838;2022-11-20T14:24:45;17.83;;;10.02;;
54935;SDS011;40838;50.676;7.838;2022-11-20T14:27:12;22.85;;;11.15;;
54935;SDS011;40838;50.676;7.838;2022-11-20T14:29:42;18.33;;;10.27;;
54935;SDS011;40838;50.676;7.838;2022-11-20T14:32:11;20.40;;;10.65;;
54935;SDS011;40838;50.676;7.838;2022-11-20T14:34:39;20.80;;;11.82;;
54935;SDS011;40838;50.676;7.838;2022-11-20T14:37:11;19.65;;;11.20;;
54935;SDS011;40838;50.676;7.838;2022-11-20T14:39:41;22.00;;;10.82;;
54935;SDS011;40838;50.676;7.838;2022-11-20T14:42:15;21.98;;;10.48;;
54935;SDS011;40838;50.676;7.838;2022-11-20T14:44:44;19.13;;;9.88;;
54935;SDS011;40838;50.676;7.838;2022-11-20T14:47:12;21.02;;;10.25;;